sensor_id;sensor_type;location;lat;lon;timestamp;P1;durP1;ratioP1;P2;durP2;ratioP2
19101;SDS011;9683;49.028;12.064;2024-01-30T00:00:29;776.25;;;428.38;;
19101;SDS011;9683;49.028;12.064;2024-01-30T00:02:55;733.20;;;394.23;;
19101;SDS011;9683;49.028;12.064;2024-01-30T00:05:23;741.95;;;404.88;;
19101;SDS011;9683;49.028;12.064;2024-01-30T00:07:50;739.17;;;398.00;;
19101;SDS011;9683;49.028;12.064;2024-01-30T00:10:16;768.50;;;424.17;;
19101;SDS011;9683;49.028;12.064;2024-01-30T00:12:43;820.20;;;445.23;;
19101;SDS011;9683;49.028;12.064;2024-01-30T00:15:10;781.65;;;412.60;;
19101;SDS011;9683;49.028;12.064;2024-01-30T00:17:36;762.58;;;422.10;;
19101;SDS011;9683;49.028;12.064;2024-01-30T00:20:04;760.30;;;407.83;;
19101;SDS011;9683;49.028;12.064;2024-01-30T00:22:33;763.80;;;417.30;;
19101;SDS011;9683;49.028;12.064;2024-01-30T00:25:00;716.58;;;409.38;;
19101;SDS011;9683;49.028;12.064;2024-01-30T00:27:27;633.10;;;365.13;;
19101;SDS011;9683;49.028;12.064;2024-01-30T00:29:53;682.25;;;383.35;;
19101;SDS011;9683;49.028;12.064;2024-01-30T00:32:20;779.13;;;424.95;;
19101;SDS011;9683;49.028;12.064;2024-01-30T00:34:48;758.72;;;417.83;;
19101;SDS011;9683;49.028;12.064;2024-01-30T00:37:14;727.80;;;406.65;;
19101;SDS011;9683;49.028;12.064;2024-01-30T00:39:43;739.53;;;411.42;;
19101;SDS011;9683;49.028;12.064;2024-01-30T00:42:09;729.22;;;410.35;;
19101;SDS011;9683;49.028;12.064;2024-01-30T00:44:36;692.90;;;380.13;;
19101;SDS011;9683;49.028;12.064;2024-01-30T00:47:03;758.50;;;407.75;;
19101;SDS011;9683;49.028;12.064;2024-01-30T00:49:30;806.30;;;436.88;;
19101;SDS011;9683;49.028;12.064;2024-01-30T00:51:57;824.63;;;454.48;;
19101;SDS011;9683;49.028;12.064;2024-01-30T00:54:23;753.97;;;393.05;;
19101;SDS011;9683;49.028;12.064;2024-01-30T00:56:51;753.75;;;406.98;;
19101;SDS011;9683;49.028;12.064;2024-01-30T00:59:18;744.90;;;406.67;;
19101;SDS011;9683;49.028;12.064;2024-01-30T01:01:44;785.85;;;433.73;;
19101;SDS011;9683;49.028;12.064;2024-01-30T01:04:11;752.30;;;399.70;;
19101;SDS011;9683;49.028;12.064;2024-01-30T01:06:37;786.60;;;417.75;;
19101;SDS011;9683;49.028;12.064;2024-01-30T01:09:04;739.10;;;392.02;;
19101;SDS011;9683;49.028;12.064;2024-01-30T01:11:30;700.92;;;384.45;;
19101;SDS011;9683;49.028;12.064;2024-01-30T01:13:59;656.60;;;367.42;;
19101;SDS011;9683;49.028;12.064;2024-01-30T01:16:25;716.33;;;384.00;;
19101;SDS011;9683;49.028;12.064;2024-01-30T01:18:52;733.03;;;391.45;;
19101;SDS011;9683;49.028;12.064;2024-01-30T01:21:18;770.83;;;403.40;;
19101;SDS011;9683;49.028;12.064;2024-01-30T01:23:45;769.92;;;395.42;;
19101;SDS011;9683;49.028;12.064;2024-01-30T01:26:11;787.75;;;419.75;;
19101;SDS011;9683;49.028;12.064;2024-01-30T01:28:39;759.38;;;401.60;;
19101;SDS011;9683;49.028;12.064;2024-01-30T01:31:07;749.92;;;388.70;;
19101;SDS011;9683;49.028;12.064;2024-01-30T01:33:34;765.53;;;406.30;;
19101;SDS011;9683;49.028;12.064;2024-01-30T01:36:02;751.40;;;400.13;;
19101;SDS011;9683;49.028;12.064;2024-01-30T01:38:29;746.03;;;394.80;;
19101;SDS011;9683;49.028;12.064;2024-01-30T01:40:55;751.40;;;390.33;;
19101;SDS011;9683;49.028;12.064;2024-01-30T01:43:22;739.42;;;395.15;;
19101;SDS011;9683;49.028;12.064;2024-01-30T01:45:48;737.22;;;390.23;;
19101;SDS011;9683;49.028;12.064;2024-01-30T01:48:16;741.33;;;387.08;;
19101;SDS011;9683;49.028;12.064;2024-01-30T01:50:43;737.85;;;381.08;;
19101;SDS011;9683;49.028;12.064;2024-01-30T01:53:10;728.70;;;388.65;;
19101;SDS011;9683;49.028;12.064;2024-01-30T01:55:36;710.15;;;386.73;;
19101;SDS011;9683;49.028;12.064;2024-01-30T01:58:03;674.22;;;369.95;;
19101;SDS011;9683;49.028;12.064;2024-01-30T02:00:30;606.70;;;328.58;;
19101;SDS011;9683;49.028;12.064;2024-01-30T02:02:57;739.42;;;421.77;;
19101;SDS011;9683;49.028;12.064;2024-01-30T02:05:26;802.47;;;443.70;;
19101;SDS011;9683;49.028;12.064;2024-01-30T02:07:53;775.10;;;430.17;;
19101;SDS011;9683;49.028;12.064;2024-01-30T02:10:21;748.10;;;389.52;;
19101;SDS011;9683;49.028;12.064;2024-01-30T02:12:48;738.53;;;403.60;;
19101;SDS011;9683;49.028;12.064;2024-01-30T02:15:14;733.50;;;371.90;;
19101;SDS011;9683;49.028;12.064;2024-01-30T02:17:41;725.92;;;376.80;;
19101;SDS011;9683;49.028;12.064;2024-01-30T02:20:08;752.97;;;394.42;;
19101;SDS011;9683;49.028;12.064;2024-01-30T02:22:37;702.33;;;365.98;;
19101;SDS011;9683;49.028;12.064;2024-01-30T02:25:04;699.88;;;358.17;;
19101;SDS011;9683;49.028;12.064;2024-01-30T02:27:31;758.97;;;418.77;;
19101;SDS011;9683;49.028;12.064;2024-01-30T02:29:57;756.15;;;403.90;;
19101;SDS011;9683;49.028;12.064;2024-01-30T02:32:24;806.33;;;441.67;;
19101;SDS011;9683;49.028;12.064;2024-01-30T02:34:50;799.40;;;439.73;;
19101;SDS011;9683;49.028;12.064;2024-01-30T02:37:17;767.90;;;419.60;;
19101;SDS011;9683;49.028;12.064;2024-01-30T02:39:45;752.85;;;399.17;;
19101;SDS011;9683;49.028;12.064;2024-01-30T02:42:11;764.65;;;422.10;;
19101;SDS011;9683;49.028;12.064;2024-01-30T02:44:38;654.47;;;353.02;;
19101;SDS011;9683;49.028;12.064;2024-01-30T02:47:05;633.40;;;346.63;;
19101;SDS011;9683;49.028;12.064;2024-01-30T02:49:31;707.67;;;381.83;;
19101;SDS011;9683;49.028;12.064;2024-01-30T02:51:58;738.78;;;400.65;;
19101;SDS011;9683;49.028;12.064;2024-01-30T02:54:24;769.97;;;413.88;;
19101;SDS011;9683;49.028;12.064;2024-01-30T02:56:52;741.00;;;400.27;;
19101;SDS011;9683;49.028;12.064;2024-01-30T02:59:19;740.33;;;399.15;;
19101;SDS011;9683;49.028;12.064;2024-01-30T03:01:45;765.25;;;407.60;;
19101;SDS011;9683;49.028;12.064;2024-01-30T03:04:13;752.45;;;408.48;;
19101;SDS011;9683;49.028;12.064;2024-01-30T03:06:44;803.47;;;422.63;;
19101;SDS011;9683;49.028;12.064;2024-01-30T03:09:11;742.00;;;398.23;;
19101;SDS011;9683;49.028;12.064;2024-01-30T03:11:38;757.00;;;413.85;;
19101;SDS011;9683;49.028;12.064;2024-01-30T03:14:06;789.47;;;420.27;;
19101;SDS011;9683;49.028;12.064;2024-01-30T03:16:33;783.97;;;418.95;;
19101;SDS011;9683;49.028;12.064;2024-01-30T03:18:59;762.47;;;410.75;;
19101;SDS011;9683;49.028;12.064;2024-01-30T03:21:27;695.80;;;367.73;;
19101;SDS011;9683;49.028;12.064;2024-01-30T03:23:53;729.60;;;386.67;;
19101;SDS011;9683;49.028;12.064;2024-01-30T03:26:20;799.50;;;426.75;;
19101;SDS011;9683;49.028;12.064;2024-01-30T03:28:47;760.38;;;421.50;;
19101;SDS011;9683;49.028;12.064;2024-01-30T03:31:15;706.67;;;396.15;;
19101;SDS011;9683;49.028;12.064;2024-01-30T03:33:42;653.85;;;380.27;;
19101;SDS011;9683;49.028;12.064;2024-01-30T03:36:08;690.28;;;387.02;;
19101;SDS011;9683;49.028;12.064;2024-01-30T03:38:35;727.75;;;392.75;;
19101;SDS011;9683;49.028;12.064;2024-01-30T03:41:02;769.75;;;419.55;;
19101;SDS011;9683;49.028;12.064;2024-01-30T03:43:29;770.35;;;419.08;;
19101;SDS011;9683;49.028;12.064;2024-01-30T03:45:55;775.63;;;423.30;;
19101;SDS011;9683;49.028;12.064;2024-01-30T03:48:23;729.45;;;392.25;;
19101;SDS011;9683;49.028;12.064;2024-01-30T03:50:50;731.22;;;383.30;;
19101;SDS011;9683;49.028;12.064;2024-01-30T03:53:17;739.88;;;395.83;;
19101;SDS011;9683;49.028;12.064;2024-01-30T03:55:44;748.28;;;401.38;;
19101;SDS011;9683;49.028;12.064;2024-01-30T03:58:10;804.88;;;422.52;;
19101;SDS011;9683;49.028;12.064;2024-01-30T04:00:37;770.35;;;418.38;;
19101;SDS011;9683;49.028;12.064;2024-01-30T04:03:03;742.78;;;406.23;;
19101;SDS011;9683;49.028;12.064;2024-01-30T04:05:31;792.70;;;440.80;;
19101;SDS011;9683;49.028;12.064;2024-01-30T04:07:59;826.60;;;450.70;;
19101;SDS011;9683;49.028;12.064;2024-01-30T04:10:26;776.63;;;413.58;;
19101;SDS011;9683;49.028;12.064;2024-01-30T04:12:52;803.80;;;447.98;;
19101;SDS011;9683;49.028;12.064;2024-01-30T04:15:19;810.47;;;442.88;;
19101;SDS011;9683;49.028;12.064;2024-01-30T04:17:46;681.95;;;368.33;;
19101;SDS011;9683;49.028;12.064;2024-01-30T04:20:13;664.40;;;379.13;;
19101;SDS011;9683;49.028;12.064;2024-01-30T04:22:42;727.40;;;415.05;;
19101;SDS011;9683;49.028;12.064;2024-01-30T04:25:09;796.60;;;443.67;;
19101;SDS011;9683;49.028;12.064;2024-01-30T04:27:36;785.58;;;433.77;;
19101;SDS011;9683;49.028;12.064;2024-01-30T04:30:03;804.92;;;436.75;;
19101;SDS011;9683;49.028;12.064;2024-01-30T04:32:30;811.50;;;447.30;;
19101;SDS011;9683;49.028;12.064;2024-01-30T04:34:58;842.40;;;475.35;;
19101;SDS011;9683;49.028;12.064;2024-01-30T04:37:24;813.10;;;439.55;;
19101;SDS011;9683;49.028;12.064;2024-01-30T04:39:52;828.35;;;458.52;;
19101;SDS011;9683;49.028;12.064;2024-01-30T04:42:19;784.00;;;424.15;;
19101;SDS011;9683;49.028;12.064;2024-01-30T04:44:45;755.22;;;399.50;;
19101;SDS011;9683;49.028;12.064;2024-01-30T04:47:12;776.08;;;424.48;;
19101;SDS011;9683;49.028;12.064;2024-01-30T04:49:39;735.45;;;390.83;;
19101;SDS011;9683;49.028;12.064;2024-01-30T04:52:06;733.33;;;403.88;;
19101;SDS011;9683;49.028;12.064;2024-01-30T04:54:32;734.75;;;401.67;;
19101;SDS011;9683;49.028;12.064;2024-01-30T04:57:01;718.13;;;396.90;;
19101;SDS011;9683;49.028;12.064;2024-01-30T04:59:27;796.42;;;440.55;;
19101;SDS011;9683;49.028;12.064;2024-01-30T05:01:54;728.78;;;390.40;;
19101;SDS011;9683;49.028;12.064;2024-01-30T05:04:21;702.33;;;388.58;;
19101;SDS011;9683;49.028;12.064;2024-01-30T05:06:50;662.88;;;374.08;;
19101;SDS011;9683;49.028;12.064;2024-01-30T05:09:17;675.58;;;375.08;;
19101;SDS011;9683;49.028;12.064;2024-01-30T05:11:44;716.60;;;371.42;;
19101;SDS011;9683;49.028;12.064;2024-01-30T05:14:12;749.75;;;403.15;;
19101;SDS011;9683;49.028;12.064;2024-01-30T05:16:40;774.75;;;419.48;;
19101;SDS011;9683;49.028;12.064;2024-01-30T05:19:06;774.78;;;416.73;;
19101;SDS011;9683;49.028;12.064;2024-01-30T05:21:33;762.88;;;398.55;;
19101;SDS011;9683;49.028;12.064;2024-01-30T05:24:00;714.60;;;372.35;;
19101;SDS011;9683;49.028;12.064;2024-01-30T05:26:26;761.00;;;410.30;;
19101;SDS011;9683;49.028;12.064;2024-01-30T05:28:53;759.72;;;406.65;;
19101;SDS011;9683;49.028;12.064;2024-01-30T05:31:21;739.13;;;407.95;;
19101;SDS011;9683;49.028;12.064;2024-01-30T05:33:48;672.70;;;346.38;;
19101;SDS011;9683;49.028;12.064;2024-01-30T05:36:15;757.25;;;405.70;;
19101;SDS011;9683;49.028;12.064;2024-01-30T05:38:42;703.72;;;358.27;;
19101;SDS011;9683;49.028;12.064;2024-01-30T05:41:09;789.85;;;428.05;;
19101;SDS011;9683;49.028;12.064;2024-01-30T05:43:36;754.28;;;405.45;;
19101;SDS011;9683;49.028;12.064;2024-01-30T05:46:03;751.53;;;410.02;;
19101;SDS011;9683;49.028;12.064;2024-01-30T05:48:31;812.42;;;444.10;;
19101;SDS011;9683;49.028;12.064;2024-01-30T05:50:58;787.35;;;431.67;;
19101;SDS011;9683;49.028;12.064;2024-01-30T05:53:25;714.63;;;393.25;;
19101;SDS011;9683;49.028;12.064;2024-01-30T05:55:51;747.55;;;430.65;;
19101;SDS011;9683;49.028;12.064;2024-01-30T05:58:18;776.63;;;430.92;;
19101;SDS011;9683;49.028;12.064;2024-01-30T06:00:44;757.95;;;407.77;;
19101;SDS011;9683;49.028;12.064;2024-01-30T06:03:11;733.35;;;392.88;;
19101;SDS011;9683;49.028;12.064;2024-01-30T06:05:39;742.80;;;385.58;;
19101;SDS011;9683;49.028;12.064;2024-01-30T06:08:06;767.65;;;408.10;;
19101;SDS011;9683;49.028;12.064;2024-01-30T06:10:33;700.58;;;395.85;;
19101;SDS011;9683;49.028;12.064;2024-01-30T06:12:59;662.53;;;359.63;;
19101;SDS011;9683;49.028;12.064;2024-01-30T06:15:26;769.47;;;434.90;;
19101;SDS011;9683;49.028;12.064;2024-01-30T06:17:54;807.05;;;450.98;;
19101;SDS011;9683;49.028;12.064;2024-01-30T06:20:21;823.15;;;454.52;;
19101;SDS011;9683;49.028;12.064;2024-01-30T06:22:49;768.50;;;421.90;;
19101;SDS011;9683;49.028;12.064;2024-01-30T06:25:16;780.70;;;435.95;;
19101;SDS011;9683;49.028;12.064;2024-01-30T06:27:42;784.70;;;440.98;;
19101;SDS011;9683;49.028;12.064;2024-01-30T06:30:09;841.90;;;458.23;;
19101;SDS011;9683;49.028;12.064;2024-01-30T06:32:37;772.15;;;428.00;;
19101;SDS011;9683;49.028;12.064;2024-01-30T06:35:04;757.22;;;413.23;;
19101;SDS011;9683;49.028;12.064;2024-01-30T06:37:31;697.97;;;368.00;;
19101;SDS011;9683;49.028;12.064;2024-01-30T06:39:59;637.17;;;359.95;;
19101;SDS011;9683;49.028;12.064;2024-01-30T06:42:26;657.17;;;366.30;;
19101;SDS011;9683;49.028;12.064;2024-01-30T06:44:52;756.42;;;411.02;;
19101;SDS011;9683;49.028;12.064;2024-01-30T06:47:19;781.42;;;428.02;;
19101;SDS011;9683;49.028;12.064;2024-01-30T06:49:45;761.33;;;418.60;;
19101;SDS011;9683;49.028;12.064;2024-01-30T06:52:12;781.85;;;434.85;;
19101;SDS011;9683;49.028;12.064;2024-01-30T06:54:39;711.33;;;375.48;;
19101;SDS011;9683;49.028;12.064;2024-01-30T06:57:07;764.58;;;420.65;;
19101;SDS011;9683;49.028;12.064;2024-01-30T06:59:37;776.33;;;436.88;;
19101;SDS011;9683;49.028;12.064;2024-01-30T07:02:08;768.72;;;411.17;;
19101;SDS011;9683;49.028;12.064;2024-01-30T07:04:34;732.38;;;376.75;;
19101;SDS011;9683;49.028;12.064;2024-01-30T07:07:02;727.42;;;375.05;;
19101;SDS011;9683;49.028;12.064;2024-01-30T07:09:29;782.00;;;424.90;;
19101;SDS011;9683;49.028;12.064;2024-01-30T07:11:56;769.22;;;410.70;;
19101;SDS011;9683;49.028;12.064;2024-01-30T07:14:24;735.53;;;383.73;;
19101;SDS011;9683;49.028;12.064;2024-01-30T07:16:51;782.45;;;421.95;;
19101;SDS011;9683;49.028;12.064;2024-01-30T07:19:18;760.95;;;407.17;;
19101;SDS011;9683;49.028;12.064;2024-01-30T07:21:44;737.17;;;395.88;;
19101;SDS011;9683;49.028;12.064;2024-01-30T07:24:11;825.60;;;438.55;;
19101;SDS011;9683;49.028;12.064;2024-01-30T07:26:37;761.83;;;413.13;;
19101;SDS011;9683;49.028;12.064;2024-01-30T07:29:04;689.40;;;386.77;;
19101;SDS011;9683;49.028;12.064;2024-01-30T07:31:32;730.55;;;423.88;;
19101;SDS011;9683;49.028;12.064;2024-01-30T07:33:58;795.25;;;438.92;;
19101;SDS011;9683;49.028;12.064;2024-01-30T07:36:25;818.60;;;458.92;;
19101;SDS011;9683;49.028;12.064;2024-01-30T07:38:52;810.25;;;460.00;;
19101;SDS011;9683;49.028;12.064;2024-01-30T07:41:19;737.55;;;379.30;;
19101;SDS011;9683;49.028;12.064;2024-01-30T07:43:46;763.30;;;432.05;;
19101;SDS011;9683;49.028;12.064;2024-01-30T07:46:12;780.97;;;435.27;;
19101;SDS011;9683;49.028;12.064;2024-01-30T07:48:40;759.03;;;418.65;;
19101;SDS011;9683;49.028;12.064;2024-01-30T07:51:07;777.00;;;414.10;;
19101;SDS011;9683;49.028;12.064;2024-01-30T07:53:33;886.72;;;476.50;;
19101;SDS011;9683;49.028;12.064;2024-01-30T07:56:00;741.45;;;401.40;;
19101;SDS011;9683;49.028;12.064;2024-01-30T07:58:27;744.03;;;398.77;;
19101;SDS011;9683;49.028;12.064;2024-01-30T08:00:54;758.35;;;412.35;;
19101;SDS011;9683;49.028;12.064;2024-01-30T08:03:23;771.67;;;400.13;;
19101;SDS011;9683;49.028;12.064;2024-01-30T08:05:51;802.03;;;437.33;;
19101;SDS011;9683;49.028;12.064;2024-01-30T08:08:17;825.88;;;460.45;;
19101;SDS011;9683;49.028;12.064;2024-01-30T08:10:44;766.40;;;428.17;;
19101;SDS011;9683;49.028;12.064;2024-01-30T08:13:11;778.67;;;434.35;;
19101;SDS011;9683;49.028;12.064;2024-01-30T08:15:37;615.97;;;309.83;;
19101;SDS011;9683;49.028;12.064;2024-01-30T08:18:04;666.50;;;331.88;;
19101;SDS011;9683;49.028;12.064;2024-01-30T08:20:32;722.45;;;376.92;;
19101;SDS011;9683;49.028;12.064;2024-01-30T08:23:00;692.53;;;338.52;;
19101;SDS011;9683;49.028;12.064;2024-01-30T08:25:26;670.70;;;325.88;;
19101;SDS011;9683;49.028;12.064;2024-01-30T08:27:53;689.55;;;355.67;;
19101;SDS011;9683;49.028;12.064;2024-01-30T08:30:20;688.88;;;339.23;;
19101;SDS011;9683;49.028;12.064;2024-01-30T08:32:46;699.83;;;338.77;;
19101;SDS011;9683;49.028;12.064;2024-01-30T08:35:13;679.85;;;332.55;;
19101;SDS011;9683;49.028;12.064;2024-01-30T08:37:41;652.13;;;319.65;;
19101;SDS011;9683;49.028;12.064;2024-01-30T08:40:09;661.10;;;305.77;;
19101;SDS011;9683;49.028;12.064;2024-01-30T08:42:36;657.00;;;310.90;;
19101;SDS011;9683;49.028;12.064;2024-01-30T08:45:03;688.00;;;344.05;;
19101;SDS011;9683;49.028;12.064;2024-01-30T08:47:32;676.92;;;339.65;;
19101;SDS011;9683;49.028;12.064;2024-01-30T08:49:59;706.83;;;374.15;;
19101;SDS011;9683;49.028;12.064;2024-01-30T08:52:26;810.45;;;464.63;;
19101;SDS011;9683;49.028;12.064;2024-01-30T08:54:52;784.85;;;433.20;;
19101;SDS011;9683;49.028;12.064;2024-01-30T08:57:20;783.95;;;432.20;;
19101;SDS011;9683;49.028;12.064;2024-01-30T08:59:47;767.65;;;440.85;;
19101;SDS011;9683;49.028;12.064;2024-01-30T09:02:16;769.30;;;446.02;;
19101;SDS011;9683;49.028;12.064;2024-01-30T09:04:43;673.42;;;399.50;;
19101;SDS011;9683;49.028;12.064;2024-01-30T09:07:10;753.42;;;429.52;;
19101;SDS011;9683;49.028;12.064;2024-01-30T09:09:38;728.97;;;404.95;;
19101;SDS011;9683;49.028;12.064;2024-01-30T09:12:06;787.53;;;431.67;;
19101;SDS011;9683;49.028;12.064;2024-01-30T09:14:35;779.47;;;429.60;;
19101;SDS011;9683;49.028;12.064;2024-01-30T09:17:02;783.63;;;433.85;;
19101;SDS011;9683;49.028;12.064;2024-01-30T09:19:30;757.72;;;416.67;;
19101;SDS011;9683;49.028;12.064;2024-01-30T09:21:56;828.17;;;466.63;;
19101;SDS011;9683;49.028;12.064;2024-01-30T09:24:23;766.72;;;427.48;;
19101;SDS011;9683;49.028;12.064;2024-01-30T09:26:49;834.33;;;465.33;;
19101;SDS011;9683;49.028;12.064;2024-01-30T09:29:16;843.28;;;472.70;;
19101;SDS011;9683;49.028;12.064;2024-01-30T09:31:44;758.80;;;414.25;;
19101;SDS011;9683;49.028;12.064;2024-01-30T09:34:11;815.33;;;445.70;;
19101;SDS011;9683;49.028;12.064;2024-01-30T09:36:38;787.70;;;430.52;;
19101;SDS011;9683;49.028;12.064;2024-01-30T09:39:05;872.83;;;501.83;;
19101;SDS011;9683;49.028;12.064;2024-01-30T09:41:32;866.05;;;502.90;;
19101;SDS011;9683;49.028;12.064;2024-01-30T09:44:06;827.15;;;462.48;;
19101;SDS011;9683;49.028;12.064;2024-01-30T09:46:35;779.30;;;435.88;;
19101;SDS011;9683;49.028;12.064;2024-01-30T09:49:03;810.55;;;462.30;;
19101;SDS011;9683;49.028;12.064;2024-01-30T09:51:30;711.92;;;418.88;;
19101;SDS011;9683;49.028;12.064;2024-01-30T09:53:57;680.40;;;411.48;;
19101;SDS011;9683;49.028;12.064;2024-01-30T09:56:24;792.00;;;477.33;;
19101;SDS011;9683;49.028;12.064;2024-01-30T09:58:50;786.60;;;450.40;;
19101;SDS011;9683;49.028;12.064;2024-01-30T10:01:17;768.53;;;426.33;;
19101;SDS011;9683;49.028;12.064;2024-01-30T10:03:44;774.85;;;437.70;;
19101;SDS011;9683;49.028;12.064;2024-01-30T10:06:12;786.95;;;445.63;;
19101;SDS011;9683;49.028;12.064;2024-01-30T10:08:42;798.10;;;454.30;;
19101;SDS011;9683;49.028;12.064;2024-01-30T10:11:09;863.05;;;494.27;;
19101;SDS011;9683;49.028;12.064;2024-01-30T10:13:35;778.22;;;443.98;;
19101;SDS011;9683;49.028;12.064;2024-01-30T10:16:02;802.38;;;455.85;;
19101;SDS011;9683;49.028;12.064;2024-01-30T10:18:31;791.45;;;440.70;;
19101;SDS011;9683;49.028;12.064;2024-01-30T10:20:58;505.27;;;144.02;;
19101;SDS011;9683;49.028;12.064;2024-01-30T10:23:26;516.20;;;147.35;;
19101;SDS011;9683;49.028;12.064;2024-01-30T10:25:53;485.33;;;137.15;;
19101;SDS011;9683;49.028;12.064;2024-01-30T10:28:20;477.92;;;140.63;;
19101;SDS011;9683;49.028;12.064;2024-01-30T10:30:46;410.83;;;123.63;;
19101;SDS011;9683;49.028;12.064;2024-01-30T10:33:23;424.63;;;122.95;;
19101;SDS011;9683;49.028;12.064;2024-01-30T10:35:50;457.25;;;136.57;;
19101;SDS011;9683;49.028;12.064;2024-01-30T10:38:17;474.17;;;140.57;;
19101;SDS011;9683;49.028;12.064;2024-01-30T10:40:47;433.63;;;123.07;;
19101;SDS011;9683;49.028;12.064;2024-01-30T10:43:19;488.17;;;145.77;;
19101;SDS011;9683;49.028;12.064;2024-01-30T10:45:49;415.60;;;120.85;;
19101;SDS011;9683;49.028;12.064;2024-01-30T10:48:17;384.70;;;116.05;;
19101;SDS011;9683;49.028;12.064;2024-01-30T10:50:47;405.85;;;123.40;;
19101;SDS011;9683;49.028;12.064;2024-01-30T10:53:16;410.85;;;119.22;;
19101;SDS011;9683;49.028;12.064;2024-01-30T10:55:44;480.58;;;141.55;;
19101;SDS011;9683;49.028;12.064;2024-01-30T10:58:14;520.08;;;149.13;;
19101;SDS011;9683;49.028;12.064;2024-01-30T11:00:41;498.55;;;146.05;;
19101;SDS011;9683;49.028;12.064;2024-01-30T11:03:08;504.20;;;148.00;;
19101;SDS011;9683;49.028;12.064;2024-01-30T11:05:35;453.60;;;132.25;;
19101;SDS011;9683;49.028;12.064;2024-01-30T11:08:10;460.05;;;142.30;;
19101;SDS011;9683;49.028;12.064;2024-01-30T11:10:44;451.83;;;133.23;;
19101;SDS011;9683;49.028;12.064;2024-01-30T11:13:15;452.65;;;141.25;;
19101;SDS011;9683;49.028;12.064;2024-01-30T11:15:42;475.40;;;150.93;;
19101;SDS011;9683;49.028;12.064;2024-01-30T11:18:08;511.02;;;156.55;;
19101;SDS011;9683;49.028;12.064;2024-01-30T11:20:39;474.10;;;142.43;;
19101;SDS011;9683;49.028;12.064;2024-01-30T11:23:13;504.58;;;153.80;;
19101;SDS011;9683;49.028;12.064;2024-01-30T11:25:40;486.70;;;153.40;;
19101;SDS011;9683;49.028;12.064;2024-01-30T11:28:14;518.20;;;155.65;;
19101;SDS011;9683;49.028;12.064;2024-01-30T11:30:42;449.40;;;141.23;;
19101;SDS011;9683;49.028;12.064;2024-01-30T11:33:09;477.83;;;149.00;;
19101;SDS011;9683;49.028;12.064;2024-01-30T11:35:37;720.35;;;401.05;;
19101;SDS011;9683;49.028;12.064;2024-01-30T11:38:06;793.38;;;461.30;;
19101;SDS011;9683;49.028;12.064;2024-01-30T11:40:35;794.00;;;457.80;;
19101;SDS011;9683;49.028;12.064;2024-01-30T11:43:04;851.08;;;490.85;;
19101;SDS011;9683;49.028;12.064;2024-01-30T11:45:33;814.83;;;466.35;;
19101;SDS011;9683;49.028;12.064;2024-01-30T11:48:00;734.70;;;434.30;;
19101;SDS011;9683;49.028;12.064;2024-01-30T11:50:28;696.30;;;419.50;;
19101;SDS011;9683;49.028;12.064;2024-01-30T11:52:55;703.13;;;446.52;;
19101;SDS011;9683;49.028;12.064;2024-01-30T11:55:23;814.05;;;491.80;;
19101;SDS011;9683;49.028;12.064;2024-01-30T11:57:50;752.70;;;443.90;;
19101;SDS011;9683;49.028;12.064;2024-01-30T12:00:17;781.88;;;432.30;;
19101;SDS011;9683;49.028;12.064;2024-01-30T12:02:48;797.17;;;458.60;;
19101;SDS011;9683;49.028;12.064;2024-01-30T12:05:15;877.17;;;498.80;;
19101;SDS011;9683;49.028;12.064;2024-01-30T12:07:43;802.95;;;455.63;;
19101;SDS011;9683;49.028;12.064;2024-01-30T12:10:10;832.20;;;484.08;;
19101;SDS011;9683;49.028;12.064;2024-01-30T12:12:39;817.03;;;481.15;;
19101;SDS011;9683;49.028;12.064;2024-01-30T12:15:07;809.22;;;471.17;;
19101;SDS011;9683;49.028;12.064;2024-01-30T12:17:34;827.85;;;483.20;;
19101;SDS011;9683;49.028;12.064;2024-01-30T12:20:06;817.22;;;452.30;;
19101;SDS011;9683;49.028;12.064;2024-01-30T12:22:35;789.55;;;451.23;;
19101;SDS011;9683;49.028;12.064;2024-01-30T12:25:04;754.78;;;432.80;;
19101;SDS011;9683;49.028;12.064;2024-01-30T12:27:31;807.25;;;488.73;;
19101;SDS011;9683;49.028;12.064;2024-01-30T12:29:58;857.97;;;489.92;;
19101;SDS011;9683;49.028;12.064;2024-01-30T12:32:24;810.17;;;466.63;;
19101;SDS011;9683;49.028;12.064;2024-01-30T12:34:54;841.70;;;504.98;;
19101;SDS011;9683;49.028;12.064;2024-01-30T12:37:22;823.45;;;488.08;;
19101;SDS011;9683;49.028;12.064;2024-01-30T12:39:50;882.97;;;522.58;;
19101;SDS011;9683;49.028;12.064;2024-01-30T12:42:18;871.15;;;531.95;;
19101;SDS011;9683;49.028;12.064;2024-01-30T12:44:45;751.08;;;469.15;;
19101;SDS011;9683;49.028;12.064;2024-01-30T12:47:12;912.22;;;557.53;;
19101;SDS011;9683;49.028;12.064;2024-01-30T12:49:41;845.28;;;510.48;;
19101;SDS011;9683;49.028;12.064;2024-01-30T12:52:07;877.88;;;540.45;;
19101;SDS011;9683;49.028;12.064;2024-01-30T12:54:35;819.70;;;457.65;;
19101;SDS011;9683;49.028;12.064;2024-01-30T12:57:02;851.70;;;501.35;;
19101;SDS011;9683;49.028;12.064;2024-01-30T12:59:29;849.65;;;507.98;;
19101;SDS011;9683;49.028;12.064;2024-01-30T13:01:55;818.40;;;487.63;;
19101;SDS011;9683;49.028;12.064;2024-01-30T13:04:22;877.28;;;537.47;;
19101;SDS011;9683;49.028;12.064;2024-01-30T13:06:49;933.65;;;557.08;;
19101;SDS011;9683;49.028;12.064;2024-01-30T13:09:16;883.05;;;538.22;;
19101;SDS011;9683;49.028;12.064;2024-01-30T13:11:44;857.55;;;518.70;;
19101;SDS011;9683;49.028;12.064;2024-01-30T13:14:10;839.40;;;518.17;;
19101;SDS011;9683;49.028;12.064;2024-01-30T13:16:37;922.05;;;544.33;;
19101;SDS011;9683;49.028;12.064;2024-01-30T13:19:03;916.45;;;564.35;;
19101;SDS011;9683;49.028;12.064;2024-01-30T13:21:31;870.25;;;536.80;;
19101;SDS011;9683;49.028;12.064;2024-01-30T13:23:57;876.78;;;544.67;;
19101;SDS011;9683;49.028;12.064;2024-01-30T13:26:24;858.08;;;522.20;;
19101;SDS011;9683;49.028;12.064;2024-01-30T13:28:53;803.03;;;517.78;;
19101;SDS011;9683;49.028;12.064;2024-01-30T13:31:19;770.40;;;501.58;;
19101;SDS011;9683;49.028;12.064;2024-01-30T13:33:46;871.67;;;541.60;;
19101;SDS011;9683;49.028;12.064;2024-01-30T13:36:14;886.28;;;545.90;;
19101;SDS011;9683;49.028;12.064;2024-01-30T13:38:40;870.15;;;518.25;;
19101;SDS011;9683;49.028;12.064;2024-01-30T13:41:07;872.03;;;517.20;;
19101;SDS011;9683;49.028;12.064;2024-01-30T13:43:34;921.83;;;564.58;;
19101;SDS011;9683;49.028;12.064;2024-01-30T13:46:02;889.05;;;537.53;;
19101;SDS011;9683;49.028;12.064;2024-01-30T13:48:29;920.30;;;559.90;;
19101;SDS011;9683;49.028;12.064;2024-01-30T13:50:57;860.10;;;526.15;;
19101;SDS011;9683;49.028;12.064;2024-01-30T13:53:24;871.97;;;517.50;;
19101;SDS011;9683;49.028;12.064;2024-01-30T13:55:50;917.83;;;553.20;;